Time;durP1;ratioP1;P1;durP2;ratioP2;P2;SDS_P1;SDS_P2;PMS_P1;PMS_P2;Temp;Humidity;BMP_temperature;BMP_pressure;BME280_temperature;BME280_humidity;BME280_pressure;Samples;Min_cycle;Max_cycle;Signal;HPM_P1;HPM_P2
2022/06/05 00:00:49;;;;;;;10.35;3.67;;;;;;;19.71;82.54;98068.88;5049663;28;20025;-82
2022/06/05 00:03:33;;;;;;;6.97;3.75;;;;;;;19.77;81.71;98076.63;5047020;28;20024;-82
2022/06/05 00:06:13;;;;;;;8.90;3.80;;;;;;;19.72;84.30;98082.44;5048867;28;20406;-83
2022/06/05 00:08:55;;;;;;;10.85;4.25;;;;;;;19.74;81.66;98082.06;5057355;28;20393;-81
2022/06/05 00:11:22;;;;;;;12.10;3.85;;;;;;;19.76;81.96;98079.75;5045131;28;20025;-81
2022/06/05 00:13:52;;;;;;;9.18;3.90;;;;;;;19.75;81.08;98078.13;5027111;28;20021;-83
2022/06/05 00:16:21;;;;;;;8.10;4.05;;;;;;;19.65;81.47;98075.84;5033988;28;20067;-83
2022/06/05 00:18:47;;;;;;;8.35;3.72;;;;;;;19.60;85.18;98065.00;5052843;28;20029;-82
2022/06/05 00:21:13;;;;;;;13.23;3.50;;;;;;;19.53;86.28;98062.81;5032708;28;20620;-83
2022/06/05 00:23:40;;;;;;;14.10;4.38;;;;;;;19.53;87.04;98071.13;5034553;28;20028;-83
2022/06/05 00:26:27;;;;;;;8.00;3.80;;;;;;;19.53;85.73;98075.88;5042660;28;20044;-83
2022/06/05 00:29:15;;;;;;;6.22;3.55;;;;;;;19.48;86.37;98070.59;5060253;28;20521;-82
2022/06/05 00:32:27;;;;;;;7.95;3.55;;;;;;;19.50;85.44;98076.59;5054946;28;20036;-84
2022/06/05 00:34:52;;;;;;;9.90;3.42;;;;;;;19.52;85.70;98075.06;5011400;28;20045;-83
2022/06/05 00:37:52;;;;;;;7.15;3.90;;;;;;;19.49;84.67;98072.19;5036668;28;20039;-85
2022/06/05 00:40:34;;;;;;;14.45;4.68;;;;;;;19.58;83.50;98070.06;5062693;28;20013;-83
2022/06/05 00:43:04;;;;;;;14.35;4.22;;;;;;;19.51;87.26;98062.38;5055298;28;20029;-83
2022/06/05 00:45:31;;;;;;;6.88;3.47;;;;;;;19.56;86.41;98078.75;5047954;28;20033;-82
2022/06/05 00:47:57;;;;;;;7.78;3.80;;;;;;;19.59;83.87;98063.38;5029795;28;20032;-83
2022/06/05 00:50:29;;;;;;;8.10;3.63;;;;;;;19.55;83.84;98079.09;5047714;28;20033;-79
2022/06/05 00:52:58;;;;;;;6.88;3.05;;;;;;;19.53;84.24;98092.53;5054041;28;20033;-80
2022/06/05 00:55:25;;;;;;;17.25;4.70;;;;;;;19.39;85.22;98081.75;5056277;28;20656;-82
2022/06/05 00:57:53;;;;;;;7.72;3.85;;;;;;;19.36;88.63;98084.47;5055007;28;20444;-80
2022/06/05 01:00:25;;;;;;;11.80;4.25;;;;;;;19.24;90.09;98085.25;5058698;28;20091;-83
2022/06/05 01:02:55;;;;;;;8.30;3.55;;;;;;;19.22;90.82;98088.41;5057760;28;20121;-82
2022/06/05 01:05:22;;;;;;;10.70;3.92;;;;;;;19.27;89.57;98096.47;5059340;28;20397;-82
2022/06/05 01:07:48;;;;;;;12.43;5.15;;;;;;;19.29;88.34;98093.38;5056737;28;20025;-84
2022/06/05 01:10:15;;;;;;;8.45;4.30;;;;;;;19.21;90.44;98095.09;5046281;28;20113;-80
2022/06/05 01:12:40;;;;;;;6.82;4.03;;;;;;;19.14;91.06;98097.63;5036271;28;20071;-80
2022/06/05 01:15:18;;;;;;;9.67;4.00;;;;;;;19.05;91.36;98087.81;5035285;28;20030;-80
2022/06/05 01:18:30;;;;;;;11.48;4.50;;;;;;;19.06;90.33;98087.47;5017329;28;20298;-81
2022/06/05 01:21:08;;;;;;;12.48;3.85;;;;;;;19.13;89.06;98078.59;5016520;28;20509;-82
2022/06/05 01:23:39;;;;;;;11.23;4.63;;;;;;;19.08;89.80;98082.38;5033851;28;20079;-81
2022/06/05 01:26:29;;;;;;;12.73;4.32;;;;;;;18.99;92.50;98080.88;5032502;28;20028;-81
2022/06/05 01:29:02;;;;;;;10.90;4.70;;;;;;;18.96;nan;98078.81;5033941;28;20045;-80
2022/06/05 01:31:53;;;;;;;9.77;4.70;;;;;;;18.87;93.45;98081.69;5032002;28;20040;-79
2022/06/05 01:34:29;;;;;;;10.63;4.63;;;;;;;18.91;92.34;98082.63;5032190;28;20051;-80
2022/06/05 01:37:03;;;;;;;15.45;4.18;;;;;;;18.93;91.58;98099.72;5016201;28;20124;-80
2022/06/05 01:39:32;;;;;;;12.65;4.88;;;;;;;18.93;90.38;98096.13;5016888;28;20040;-82
2022/06/05 01:42:11;;;;;;;8.10;4.10;;;;;;;18.90;91.07;98092.09;5043495;28;20566;-80
2022/06/05 01:44:45;;;;;;;8.52;4.13;;;;;;;18.77;91.90;98075.78;5024943;28;20613;-80
2022/06/05 01:47:17;;;;;;;10.95;4.55;;;;;;;18.81;94.38;98094.19;5033408;28;20124;-80
2022/06/05 01:49:50;;;;;;;11.35;4.93;;;;;;;18.75;92.95;98084.47;5016590;28;20084;-80
2022/06/05 01:52:31;;;;;;;11.90;5.25;;;;;;;18.82;91.41;98081.94;5015999;28;20075;-78
2022/06/05 01:55:06;;;;;;;15.63;6.30;;;;;;;18.84;92.38;98078.81;5015988;28;20051;-80
2022/06/05 01:57:34;;;;;;;10.77;5.53;;;;;;;18.78;91.79;98072.69;5034316;28;20094;-80
2022/06/05 02:00:19;;;;;;;11.10;5.15;;;;;;;18.80;92.51;98070.38;5015689;28;20025;-80
2022/06/05 02:02:51;;;;;;;;;;;;;;;18.77;95.06;98076.63;5034690;28;20049;-79
2022/06/05 02:05:27;;;;;;;8.30;4.78;;;;;;;18.73;94.23;98073.72;5034830;28;19913;-82
2022/06/05 02:07:58;;;;;;;13.13;4.22;;;;;;;18.73;94.70;98069.34;5033187;28;20068;-80
2022/06/05 02:10:33;;;;;;;9.00;4.70;;;;;;;18.66;96.75;98065.19;5032940;28;20128;-82
2022/06/05 02:13:01;;;;;;;11.90;5.03;;;;;;;18.73;95.95;98075.72;5032018;28;20091;-79
2022/06/05 02:15:28;;;;;;;13.38;5.20;;;;;;;18.81;94.53;98077.53;5032752;28;20029;-80
2022/06/05 02:18:00;;;;;;;10.23;5.05;;;;;;;18.66;95.65;98072.69;5014904;28;20108;-80
2022/06/05 02:20:25;;;;;;;11.70;5.57;;;;;;;18.55;98.58;98074.28;5034202;28;20044;-77
2022/06/05 02:22:51;;;;;;;9.07;4.40;;;;;;;18.45;100.00;98067.19;5038192;28;20060;-78
2022/06/05 02:25:24;;;;;;;9.77;4.43;;;;;;;18.49;100.00;98067.31;5032520;28;20033;-80
2022/06/05 02:27:51;;;;;;;13.20;5.55;;;;;;;18.46;100.00;98070.78;5031273;28;20033;-77
2022/06/05 02:30:17;;;;;;;9.32;5.30;;;;;;;18.37;100.00;98070.88;5031086;28;20100;-79
2022/06/05 02:32:55;;;;;;;8.60;5.68;;;;;;;18.27;100.00;98074.09;5031310;28;20112;-78
2022/06/05 02:35:41;;;;;;;12.05;5.50;;;;;;;18.17;100.00;98071.75;5030759;28;20133;-78
2022/06/05 02:38:26;;;;;;;13.23;6.15;;;;;;;18.22;100.00;98081.81;5031148;28;20083;-81
2022/06/05 02:41:06;;;;;;;11.33;5.10;;;;;;;18.14;100.00;98070.47;5013736;28;20478;-78
2022/06/05 02:46:48;;;;;;;15.40;5.88;;;;;;;18.07;100.00;98070.22;5031631;28;20057;-78
2022/06/05 02:49:29;;;;;;;8.95;4.80;;;;;;;18.15;100.00;98074.88;5031729;28;20038;-79
2022/06/05 02:51:59;;;;;;;12.48;5.07;;;;;;;18.24;100.00;98066.47;5012914;28;20013;-79
2022/06/05 02:54:26;;;;;;;10.23;5.15;;;;;;;18.29;100.00;98076.53;5030619;28;20025;-79
2022/06/05 02:56:52;;;;;;;11.90;6.28;;;;;;;18.17;100.00;98085.59;5031037;28;20036;-79
2022/06/05 02:59:18;;;;;;;10.98;5.95;;;;;;;18.10;100.00;98080.63;5033262;28;20018;-79
2022/06/05 03:04:28;;;;;;;11.63;5.07;;;;;;;18.02;100.00;98072.38;5030786;28;20082;-79
2022/06/05 03:06:54;;;;;;;11.80;5.50;;;;;;;17.99;100.00;98064.75;5012943;28;20009;-79
2022/06/05 03:09:19;;;;;;;10.98;5.60;;;;;;;18.07;100.00;98059.13;5013051;28;20049;-80
2022/06/05 03:11:44;;;;;;;13.02;5.80;;;;;;;18.03;100.00;98063.75;5030545;28;20029;-80
2022/06/05 03:14:10;;;;;;;8.32;6.03;;;;;;;18.03;100.00;98062.94;5030323;28;20044;-80
2022/06/05 03:16:36;;;;;;;8.98;5.50;;;;;;;18.15;100.00;98072.09;5012738;28;20029;-79
2022/06/05 03:19:02;;;;;;;11.02;5.80;;;;;;;18.27;100.00;98078.81;5030365;28;20037;-79
2022/06/05 03:21:32;;;;;;;12.43;5.65;;;;;;;18.24;100.00;98068.41;5030456;28;20057;-79
2022/06/05 03:23:57;;;;;;;10.82;5.70;;;;;;;18.23;100.00;98069.59;5013718;28;20115;-79
2022/06/05 03:26:22;;;;;;;14.32;6.85;;;;;;;18.16;100.00;98068.19;5030507;28;20057;-81
2022/06/05 03:28:48;;;;;;;9.88;5.28;;;;;;;18.47;100.00;98072.41;5031249;28;20034;-80
2022/06/05 03:31:13;;;;;;;11.57;5.68;;;;;;;18.76;100.00;98071.44;5030627;28;20029;-81
2022/06/05 03:33:39;;;;;;;13.63;5.60;;;;;;;18.98;100.00;98062.66;5012986;28;20129;-79
2022/06/05 03:36:13;;;;;;;12.52;5.72;;;;;;;19.31;100.00;98079.94;5030456;28;20029;-80
2022/06/05 03:38:39;;;;;;;10.23;5.63;;;;;;;19.48;99.67;98068.63;5012302;28;20030;-79
2022/06/05 03:41:05;;;;;;;8.50;5.05;;;;;;;19.82;96.62;98067.25;5030452;28;20509;-80
2022/06/05 03:43:30;;;;;;;10.13;5.38;;;;;;;20.32;94.13;98085.31;5013245;28;20030;-79
2022/06/05 03:46:04;;;;;;;12.43;5.63;;;;;;;20.68;90.95;98073.97;5030153;28;20026;-78
2022/06/05 03:48:30;;;;;;;10.95;5.63;;;;;;;21.13;85.94;98076.31;5015760;28;20030;-79
2022/06/05 03:50:55;;;;;;;7.88;4.88;;;;;;;21.58;81.15;98086.88;5040721;28;20044;-79
2022/06/05 03:53:21;;;;;;;11.40;5.22;;;;;;;21.77;79.81;98090.47;5032703;28;20061;-80
2022/06/05 03:55:46;;;;;;;7.35;4.20;;;;;;;21.87;77.41;98087.13;5011930;28;20209;-79
2022/06/05 03:58:11;;;;;;;10.70;4.93;;;;;;;22.33;74.61;98081.72;5029515;28;20075;-79
2022/06/05 04:00:37;;;;;;;8.43;4.50;;;;;;;22.59;73.85;98072.59;5029477;28;20006;-79
2022/06/05 04:03:02;;;;;;;9.90;5.25;;;;;;;22.98;70.65;98067.75;5030055;28;20552;-79
2022/06/05 04:05:27;;;;;;;10.10;4.40;;;;;;;22.51;73.12;98074.47;5032660;28;20037;-79
2022/06/05 04:07:53;;;;;;;13.15;5.25;;;;;;;22.06;77.66;98077.19;5033332;28;20458;-80
2022/06/05 04:10:19;;;;;;;9.30;5.05;;;;;;;22.25;77.26;98066.00;5033233;28;20018;-79
2022/06/05 04:12:46;;;;;;;10.50;4.80;;;;;;;22.29;77.11;98073.28;5015279;28;20032;-78
2022/06/05 04:15:12;;;;;;;9.20;5.38;;;;;;;22.99;72.58;98081.34;5033120;28;20014;-78
2022/06/05 04:17:38;;;;;;;11.30;5.20;;;;;;;23.54;70.32;98082.59;5033136;28;20022;-80
2022/06/05 04:20:05;;;;;;;11.00;5.53;;;;;;;24.11;68.39;98086.13;5033432;28;20053;-80
2022/06/05 04:22:30;;;;;;;8.35;5.20;;;;;;;24.67;64.00;98086.78;5015114;28;20032;-79
2022/06/05 04:24:56;;;;;;;8.40;5.30;;;;;;;23.46;68.75;98080.91;5033269;28;20026;-79
2022/06/05 04:27:21;;;;;;;8.25;5.07;;;;;;;22.50;74.28;98083.19;5014956;28;20028;-80
2022/06/05 04:29:47;;;;;;;10.48;5.40;;;;;;;21.96;77.68;98075.78;5032962;28;20108;-77
2022/06/05 04:32:12;;;;;;;11.60;5.25;;;;;;;21.71;79.46;98072.44;5015192;28;20032;-80
2022/06/05 04:34:38;;;;;;;11.15;5.40;;;;;;;21.84;77.17;98073.13;5032750;28;20037;-78
2022/06/05 04:37:04;;;;;;;8.00;5.45;;;;;;;21.56;78.02;98055.81;5032577;28;20037;-77
2022/06/05 04:39:30;;;;;;;9.95;5.00;;;;;;;21.31;80.09;98056.06;5032846;28;20029;-77
2022/06/05 04:41:55;;;;;;;10.07;4.95;;;;;;;21.64;79.76;98052.81;5032607;28;20072;-79
2022/06/05 04:44:20;;;;;;;8.38;4.97;;;;;;;21.68;79.31;98052.88;5032697;28;20525;-78
2022/06/05 04:46:46;;;;;;;14.63;5.38;;;;;;;21.47;78.60;98069.13;5035652;28;20028;-79
2022/06/05 04:49:13;;;;;;;8.73;4.70;;;;;;;21.11;80.70;98054.38;5050775;28;20064;-80
2022/06/05 04:51:38;;;;;;;10.00;5.07;;;;;;;20.44;83.82;98051.91;5035160;28;20025;-78
2022/06/05 04:54:05;;;;;;;8.82;4.93;;;;;;;21.00;81.99;98041.38;5032621;28;20033;-79
2022/06/05 04:56:32;;;;;;;13.93;4.88;;;;;;;21.42;78.53;98042.41;5029360;28;20040;-79
2022/06/05 04:58:58;;;;;;;9.68;4.72;;;;;;;21.20;79.87;98040.31;5052013;28;20470;-79
2022/06/05 05:01:31;;;;;;;9.85;4.60;;;;;;;21.28;80.31;98034.53;5051583;28;20036;-79
2022/06/05 05:04:03;;;;;;;11.38;4.25;;;;;;;21.34;79.79;98040.59;5052087;28;20029;-80
2022/06/05 05:06:29;;;;;;;12.00;4.68;;;;;;;21.15;79.53;98048.91;5052007;28;20478;-81
2022/06/05 05:08:58;;;;;;;11.85;5.10;;;;;;;20.93;79.98;98016.97;5034003;28;20126;-77
2022/06/05 05:11:24;;;;;;;7.53;4.70;;;;;;;21.14;79.62;98044.53;5052155;28;20390;-80
2022/06/05 05:13:51;;;;;;;10.48;4.60;;;;;;;21.08;80.01;98055.09;5037721;28;20029;-78
2022/06/05 05:16:17;;;;;;;9.75;5.07;;;;;;;21.05;80.25;98053.03;5035533;28;20024;-79
2022/06/05 05:18:42;;;;;;;6.95;4.60;;;;;;;21.51;78.72;98050.53;5051837;28;20032;-79
2022/06/05 05:21:13;;;;;;;12.23;5.28;;;;;;;21.83;76.05;98063.94;5051354;28;20052;-79
2022/06/05 05:23:39;;;;;;;12.10;5.63;;;;;;;22.00;74.24;98053.56;5051181;28;20052;-77
2022/06/05 05:26:34;;;;;;;7.20;4.28;;;;;;;22.10;73.54;98037.06;5024813;28;20026;-80
2022/06/05 05:29:00;;;;;;;7.35;5.13;;;;;;;21.85;74.99;98042.13;5041637;28;20025;-80
2022/06/05 05:31:32;;;;;;;11.32;4.75;;;;;;;21.80;75.74;98056.31;5039729;28;20029;-80
2022/06/05 05:34:01;;;;;;;10.32;4.82;;;;;;;22.03;75.75;98048.06;5016156;28;20594;-74
2022/06/05 05:36:28;;;;;;;10.27;5.50;;;;;;;22.44;74.21;98038.09;5031258;28;20065;-74
2022/06/05 05:44:26;;;;;;;10.05;4.78;;;;;;;22.85;74.55;98011.34;5041639;28;20070;-72
2022/06/05 05:46:52;;;;;;;10.23;5.85;;;;;;;22.31;75.42;98009.59;5043441;28;20030;-74
2022/06/05 05:49:17;;;;;;;11.40;5.40;;;;;;;22.31;76.26;98017.13;5013500;28;20053;-74
2022/06/05 05:51:43;;;;;;;9.60;5.43;;;;;;;22.56;76.22;98020.38;5030676;28;20394;-73
2022/06/05 05:54:09;;;;;;;9.30;5.90;;;;;;;22.83;74.69;98016.50;5030677;28;20112;-74
2022/06/05 05:56:35;;;;;;;9.15;4.95;;;;;;;22.73;73.28;98014.31;5015764;28;20479;-73
2022/06/05 05:59:01;;;;;;;14.82;7.10;;;;;;;23.20;71.23;98005.47;5020343;28;20026;-71
2022/06/05 06:01:26;;;;;;;13.68;5.80;;;;;;;23.32;69.74;97997.69;5031660;28;20026;-73
2022/06/05 06:03:52;;;;;;;12.57;5.63;;;;;;;23.48;68.80;98008.69;5030587;28;20398;-75
2022/06/05 06:06:23;;;;;;;9.15;5.38;;;;;;;23.57;69.20;98014.81;5030871;28;20056;-73
2022/06/05 06:08:48;;;;;;;14.07;5.60;;;;;;;23.76;67.35;98011.06;5030564;28;20032;-74
2022/06/05 06:11:14;;;;;;;12.52;5.05;;;;;;;23.71;67.71;98003.03;5031603;28;20399;-74
2022/06/05 06:13:39;;;;;;;11.50;5.03;;;;;;;24.18;67.06;98011.59;5032800;28;20028;-75
2022/06/05 06:16:04;;;;;;;7.03;4.75;;;;;;;24.72;63.98;98022.06;5050597;28;20036;-74
2022/06/05 06:18:30;;;;;;;11.85;5.40;;;;;;;24.20;66.55;98023.19;5039827;28;20033;-75
2022/06/05 06:20:55;;;;;;;9.80;5.07;;;;;;;23.65;67.77;98021.31;5030865;28;20095;-74
2022/06/05 06:23:20;;;;;;;10.25;5.40;;;;;;;23.46;68.86;98014.66;5012649;28;20037;-75
2022/06/05 06:25:46;;;;;;;11.93;5.68;;;;;;;23.35;69.22;98016.47;5030929;28;20023;-75
2022/06/05 06:28:11;;;;;;;9.23;5.05;;;;;;;24.09;67.45;98013.81;5030287;28;20033;-75
2022/06/05 06:30:38;;;;;;;9.27;4.65;;;;;;;24.45;64.94;98037.41;5038391;28;20056;-76
2022/06/05 06:33:04;;;;;;;7.80;4.70;;;;;;;24.17;65.27;98026.75;5050224;28;20029;-76
2022/06/05 06:35:29;;;;;;;10.13;5.47;;;;;;;24.07;65.25;98032.97;5037998;28;20475;-75
2022/06/05 06:37:54;;;;;;;13.63;5.57;;;;;;;24.26;65.10;98029.22;5030974;28;20087;-76
2022/06/05 06:40:20;;;;;;;15.38;5.22;;;;;;;24.61;63.45;98032.38;5011988;28;20108;-77
2022/06/05 06:42:45;;;;;;;11.25;5.40;;;;;;;24.72;63.09;98036.06;5029394;28;20112;-75
2022/06/05 06:45:11;;;;;;;8.82;5.05;;;;;;;25.28;61.16;98044.13;5029702;28;20029;-74
2022/06/05 06:47:37;;;;;;;10.98;5.13;;;;;;;25.31;61.10;98045.38;5012608;28;20033;-74
2022/06/05 06:50:04;;;;;;;13.60;5.50;;;;;;;25.27;61.96;98058.53;5030575;28;20112;-75
2022/06/05 06:52:29;;;;;;;7.25;5.03;;;;;;;25.54;59.49;98060.75;5030326;28;20025;-74
2022/06/05 06:54:54;;;;;;;10.95;4.97;;;;;;;26.00;58.65;98055.34;5030447;28;20128;-75
2022/06/05 06:57:20;;;;;;;7.63;4.97;;;;;;;26.25;57.58;98049.06;5030219;28;20071;-75
2022/06/05 06:59:45;;;;;;;10.50;5.15;;;;;;;26.26;56.48;98048.66;5012619;28;20459;-75
2022/06/05 07:02:11;;;;;;;6.43;4.78;;;;;;;25.79;57.36;98048.84;5029124;28;20125;-74
2022/06/05 07:04:36;;;;;;;9.23;5.00;;;;;;;25.40;58.82;98041.03;4996043;28;20099;-74
2022/06/05 07:07:02;;;;;;;12.45;5.57;;;;;;;25.51;58.96;98033.50;5030146;28;20091;-75
2022/06/05 07:09:27;;;;;;;9.45;4.80;;;;;;;25.74;58.56;98030.44;5030151;28;20017;-74
2022/06/05 07:11:53;;;;;;;9.35;5.13;;;;;;;25.49;57.99;98032.28;5029893;28;20091;-74
2022/06/05 07:14:18;;;;;;;9.23;5.38;;;;;;;25.43;58.98;98031.84;5030081;28;20139;-75
2022/06/05 07:16:44;;;;;;;8.88;5.13;;;;;;;25.46;59.16;98038.66;5030129;28;20092;-74
2022/06/05 07:19:09;;;;;;;9.95;5.18;;;;;;;26.10;57.94;98036.97;5030163;28;20095;-75
2022/06/05 07:21:35;;;;;;;7.15;4.82;;;;;;;26.67;55.76;98054.75;5029008;28;20025;-75
2022/06/05 07:24:01;;;;;;;9.13;4.47;;;;;;;26.82;55.13;98044.38;5030515;28;20014;-75
2022/06/05 07:26:30;;;;;;;7.65;4.35;;;;;;;26.93;54.05;98051.63;5033982;28;20037;-75
2022/06/05 07:28:56;;;;;;;9.02;4.57;;;;;;;27.45;53.92;98054.81;5032968;28;20033;-75
2022/06/05 07:31:22;;;;;;;12.00;4.95;;;;;;;27.21;53.89;98062.03;5028661;28;20597;-75
2022/06/05 07:33:48;;;;;;;12.27;4.55;;;;;;;27.50;54.26;98058.00;5030238;28;20018;-74
2022/06/05 07:36:16;;;;;;;40.17;22.50;;;;;;;27.57;52.80;98057.97;5038024;28;20035;-74
2022/06/05 07:38:43;;;;;;;9.52;5.20;;;;;;;27.94;52.74;98054.66;5045752;28;20447;-75
2022/06/05 07:41:21;;;;;;;9.27;5.10;;;;;;;28.45;51.34;98051.22;5036372;28;20034;-74
2022/06/05 07:43:48;;;;;;;6.88;4.25;;;;;;;28.34;50.38;98042.06;5053634;28;20059;-75
2022/06/05 07:46:13;;;;;;;9.57;4.05;;;;;;;27.80;52.30;98048.28;5030727;28;20032;-74
2022/06/05 07:48:40;;;;;;;15.68;4.93;;;;;;;28.12;53.01;98049.81;5042725;28;20025;-76
2022/06/05 07:56:37;;;;;;;6.90;4.10;;;;;;;29.43;48.83;98057.34;5049168;28;20116;-73
2022/06/05 07:59:03;;;;;;;8.48;4.60;;;;;;;29.51;47.13;98044.00;5049583;28;20115;-74
2022/06/05 08:01:28;;;;;;;14.45;5.18;;;;;;;29.25;47.03;98028.53;5044095;28;20430;-74
2022/06/05 08:03:53;;;;;;;9.48;3.83;;;;;;;29.82;45.93;98030.75;5049390;28;20113;-75
2022/06/05 08:06:19;;;;;;;9.13;4.60;;;;;;;29.51;46.83;98033.50;5049995;28;20020;-74
2022/06/05 08:08:44;;;;;;;8.50;4.72;;;;;;;28.74;48.68;98034.16;5051316;28;20029;-74
2022/06/05 08:11:10;;;;;;;6.82;4.13;;;;;;;28.70;48.73;98046.25;5044655;28;20087;-74
2022/06/05 08:13:35;;;;;;;8.07;4.63;;;;;;;29.20;48.08;98040.22;5033872;28;20029;-73
2022/06/05 08:16:03;;;;;;;12.63;4.70;;;;;;;29.25;46.85;98037.00;5042576;28;20028;-73
2022/06/05 08:18:28;;;;;;;7.13;4.75;;;;;;;29.35;48.18;98044.56;5046638;28;20028;-76
2022/06/05 08:20:56;;;;;;;7.68;4.38;;;;;;;30.05;45.56;98034.50;5042842;28;20041;-74
2022/06/05 08:23:25;;;;;;;9.38;4.50;;;;;;;30.34;44.76;98040.59;5022392;28;20727;-74
2022/06/05 08:25:57;;;;;;;8.73;4.85;;;;;;;30.73;43.35;98040.81;5042602;28;20436;-75
2022/06/05 08:28:25;;;;;;;7.80;4.32;;;;;;;29.66;45.77;98018.03;5044716;28;20029;-74
2022/06/05 08:30:52;;;;;;;10.02;4.80;;;;;;;28.87;48.15;98007.09;5026342;28;20106;-74
2022/06/05 08:33:17;;;;;;;7.70;4.63;;;;;;;27.96;49.59;97996.00;5048438;28;20044;-73
2022/06/05 08:35:46;;;;;;;7.82;4.95;;;;;;;29.07;47.19;97996.88;5025442;28;20029;-73
2022/06/05 08:41:32;;;;;;;12.32;5.28;;;;;;;28.47;48.75;98000.97;5042369;28;20528;-75
2022/06/05 08:44:12;;;;;;;9.07;5.40;;;;;;;29.12;46.36;98004.88;5043066;28;20049;-76
2022/06/05 08:46:43;;;;;;;12.05;5.32;;;;;;;28.47;47.94;98002.97;5043720;28;20155;-76
2022/06/05 08:49:15;;;;;;;9.90;4.97;;;;;;;29.17;47.55;97996.75;5042655;28;20037;-76
2022/06/05 08:51:49;;;;;;;9.60;5.00;;;;;;;29.46;46.93;97991.66;5040515;28;20071;-79
2022/06/05 08:54:37;;;;;;;14.23;5.97;;;;;;;29.67;46.67;97997.06;5021739;28;20033;-77
2022/06/05 08:57:10;;;;;;;13.30;5.55;;;;;;;29.46;47.20;97986.03;5046043;28;20095;-75
2022/06/05 09:00:09;;;;;;;9.10;6.30;;;;;;;29.46;48.09;97986.03;5040738;28;20104;-74
2022/06/05 09:02:45;;;;;;;8.15;5.68;;;;;;;29.59;47.03;97978.63;5015184;28;20076;-76
2022/06/05 09:05:18;;;;;;;10.50;6.30;;;;;;;29.40;47.51;97982.06;5047847;28;20541;-79
2022/06/05 09:07:50;;;;;;;10.52;5.68;;;;;;;29.41;48.76;97978.03;5048433;28;20024;-78
2022/06/05 09:10:21;;;;;;;10.93;5.40;;;;;;;30.33;46.27;97976.06;5042829;28;20017;-79
2022/06/05 09:13:09;;;;;;;11.02;5.35;;;;;;;30.93;44.91;97964.63;5033631;28;20040;-73
2022/06/05 09:15:42;;;;;;;11.90;5.47;;;;;;;31.51;43.76;97966.03;5029079;28;20041;-76
2022/06/05 09:18:18;;;;;;;9.02;5.25;;;;;;;31.87;42.82;97974.56;5046665;28;20406;-74
2022/06/05 09:20:49;;;;;;;10.38;5.30;;;;;;;31.98;41.84;97966.66;5043053;28;20045;-72
2022/06/05 09:23:27;;;;;;;12.93;5.15;;;;;;;31.76;42.09;97966.28;5048075;28;20055;-74
2022/06/05 09:26:21;;;;;;;10.02;5.78;;;;;;;31.34;42.57;97975.63;5037303;28;20040;-74
2022/06/05 09:29:04;;;;;;;8.60;4.78;;;;;;;30.92;43.44;97954.53;5036269;28;20021;-77
2022/06/05 09:31:56;;;;;;;9.55;5.78;;;;;;;30.20;45.21;97956.88;5048339;28;20017;-77
2022/06/05 09:34:38;;;;;;;10.32;5.60;;;;;;;29.50;47.43;97946.50;5026122;28;20096;-72
2022/06/05 09:37:21;;;;;;;12.05;5.97;;;;;;;29.44;47.81;97943.38;5038494;28;20061;-73
2022/06/05 09:39:54;;;;;;;9.65;5.13;;;;;;;29.28;48.27;97939.50;5051715;28;20024;-75
2022/06/05 09:42:37;;;;;;;9.38;6.10;;;;;;;28.93;49.72;97924.56;5040333;28;20022;-74
2022/06/05 09:45:19;;;;;;;9.85;6.05;;;;;;;29.68;48.12;97928.16;5049070;28;20025;-74
2022/06/05 09:47:59;;;;;;;12.13;6.25;;;;;;;29.81;47.57;97930.41;5057028;28;20466;-78
2022/06/05 09:50:28;;;;;;;9.02;5.22;;;;;;;30.23;47.30;97915.69;5048484;28;20072;-77
2022/06/05 09:52:54;;;;;;;12.20;6.85;;;;;;;30.16;47.37;97916.63;5048833;28;20513;-74
2022/06/05 09:55:44;;;;;;;7.90;6.13;;;;;;;30.08;47.21;97926.41;5040599;28;20112;-73
2022/06/05 09:58:31;;;;;;;12.73;6.05;;;;;;;30.00;48.55;97907.19;5039015;28;20037;-76
2022/06/05 10:01:29;;;;;;;9.77;5.40;;;;;;;30.78;46.84;97912.41;5045883;28;20026;-78
2022/06/05 10:03:57;;;;;;;10.13;6.10;;;;;;;31.36;45.23;97898.84;5025583;28;20065;-80
2022/06/05 10:06:42;;;;;;;7.15;5.32;;;;;;;31.56;44.25;97899.66;5048189;28;20036;-75
2022/06/05 10:09:13;;;;;;;9.13;5.47;;;;;;;31.76;44.10;97904.03;5047621;28;20027;-84
2022/06/05 10:11:40;;;;;;;9.88;5.70;;;;;;;32.07;43.78;97898.16;5030145;28;20021;-78
2022/06/05 10:14:23;;;;;;;8.43;5.43;;;;;;;32.22;43.40;97896.56;5055387;28;20028;-77
2022/06/05 10:17:03;;;;;;;12.02;6.18;;;;;;;32.30;43.32;97895.94;5051994;28;20052;-82
2022/06/05 10:19:49;;;;;;;11.05;6.05;;;;;;;30.86;46.42;97896.91;5055052;28;20053;-80
2022/06/05 10:22:27;;;;;;;10.50;6.28;;;;;;;31.26;46.19;97892.94;5016318;28;20135;-78
2022/06/05 10:25:04;;;;;;;9.98;6.28;;;;;;;31.58;45.29;97891.50;5047573;28;20029;-78
2022/06/05 10:27:31;;;;;;;8.40;6.03;;;;;;;32.12;44.62;97881.44;5037457;28;20013;-74
2022/06/05 10:30:00;;;;;;;13.77;6.28;;;;;;;32.48;43.42;97875.69;5031504;28;20490;-78
2022/06/05 10:32:43;;;;;;;11.27;6.72;;;;;;;32.37;43.67;97869.50;5032947;28;20096;-74
2022/06/05 10:35:34;;;;;;;9.80;6.80;;;;;;;31.86;44.53;97862.59;5040591;28;20108;-75
2022/06/05 10:38:20;;;;;;;9.82;6.03;;;;;;;32.23;43.94;97864.19;5045606;28;20033;-72
2022/06/05 10:40:55;;;;;;;7.57;5.95;;;;;;;32.59;43.13;97856.41;5029619;28;20033;-79
2022/06/05 10:43:25;;;;;;;11.95;5.13;;;;;;;32.77;43.00;97853.91;5022646;28;20067;-74
2022/06/05 10:46:25;;;;;;;8.48;5.80;;;;;;;32.31;44.46;97854.28;5034247;28;20034;-79
2022/06/05 10:49:06;;;;;;;11.93;6.63;;;;;;;32.17;44.54;97846.13;5030564;28;20431;-80
2022/06/05 10:51:39;;;;;;;15.32;6.72;;;;;;;32.18;44.08;97844.88;5043620;28;20049;-81
2022/06/05 10:54:29;;;;;;;11.60;6.80;;;;;;;31.61;46.04;97840.50;5035569;28;20037;-76
2022/06/05 10:57:06;;;;;;;10.93;5.85;;;;;;;32.02;45.48;97839.16;5032302;28;20029;-77
2022/06/05 10:59:56;;;;;;;8.30;6.18;;;;;;;32.37;44.27;97835.50;5028121;28;20041;-77
2022/06/05 11:02:43;;;;;;;11.02;6.55;;;;;;;32.54;43.69;97834.25;5030005;28;20037;-76
2022/06/05 11:05:36;;;;;;;8.23;5.93;;;;;;;32.40;44.12;97834.59;5032559;28;20104;-78
2022/06/05 11:08:17;;;;;;;9.73;6.18;;;;;;;32.34;44.24;97810.91;5034536;28;20108;-79
2022/06/05 11:13:54;;;;;;;8.68;6.65;;;;;;;32.87;43.10;97812.34;5030468;28;20099;-80
2022/06/05 11:16:20;;;;;;;9.00;5.88;;;;;;;33.19;43.14;97809.44;5046629;28;20044;-79
2022/06/05 11:18:56;;;;;;;8.80;6.50;;;;;;;33.29;43.21;97799.81;5040240;28;20025;-80
2022/06/05 11:21:23;;;;;;;9.93;6.35;;;;;;;33.48;42.68;97806.53;5034953;28;20387;-78
2022/06/05 11:23:53;;;;;;;12.38;6.03;;;;;;;33.44;42.23;97797.34;5032381;28;20040;-76
2022/06/05 11:26:24;;;;;;;12.57;6.93;;;;;;;33.42;42.12;97791.31;5035057;28;20034;-75
2022/06/05 11:29:02;;;;;;;11.35;6.10;;;;;;;32.67;43.88;97789.03;5047612;28;20099;-71
2022/06/05 11:31:42;;;;;;;10.05;6.00;;;;;;;31.49;46.79;97773.28;5036471;28;20021;-72
2022/06/05 11:34:26;;;;;;;10.75;6.38;;;;;;;31.87;45.99;97775.66;5028296;28;20032;-74
2022/06/05 11:36:55;;;;;;;8.52;6.18;;;;;;;31.24;47.32;97771.00;5037002;28;20034;-71
2022/06/05 11:39:26;;;;;;;13.23;6.85;;;;;;;31.21;47.74;97765.41;5029190;28;20029;-73
2022/06/05 11:42:10;;;;;;;12.73;5.90;;;;;;;31.70;45.93;97764.31;5031961;28;20105;-74
2022/06/05 11:45:08;;;;;;;11.43;6.70;;;;;;;31.98;45.64;97756.38;5040185;28;20051;-74
2022/06/05 11:48:00;;;;;;;10.35;6.07;;;;;;;31.53;45.62;97750.59;5001187;28;20041;-75
2022/06/05 11:50:36;;;;;;;7.47;5.65;;;;;;;32.44;43.74;97743.88;5038460;28;20049;-76
2022/06/05 11:53:30;;;;;;;9.65;5.47;;;;;;;33.18;42.50;97753.13;5033987;28;20034;-79
2022/06/05 11:56:16;;;;;;;11.35;6.50;;;;;;;33.12;42.11;97738.72;5036380;28;20152;-77
2022/06/05 11:58:54;;;;;;;10.95;6.07;;;;;;;33.16;42.28;97730.09;5034106;28;20075;-76
2022/06/05 12:01:27;;;;;;;9.82;5.90;;;;;;;33.25;42.13;97735.91;5033661;28;20055;-79
2022/06/05 12:04:16;;;;;;;11.45;6.20;;;;;;;33.67;41.07;97723.25;5043735;28;20025;-79
2022/06/05 12:06:46;;;;;;;8.98;5.80;;;;;;;33.53;41.51;97728.53;5048955;28;20033;-80
2022/06/05 12:09:22;;;;;;;10.02;5.80;;;;;;;33.67;41.02;97711.91;5028562;28;20032;-75
2022/06/05 12:12:33;;;;;;;13.20;7.47;;;;;;;33.61;41.42;97716.56;5042748;28;20045;-81
2022/06/05 12:15:14;;;;;;;10.80;6.30;;;;;;;34.01;40.77;97718.91;4986872;28;20578;-77